EGEC

Campbeltown Airport

Campbeltown, United Kingdom
METAR EGEC 201620Z 36009KT 4500 BR BKN002 14/14 Q1011
Observed Flight Rules
Jul-20 @ 16:20 UTC (12 hours ago) Instrument Flight Rules
Wind Visibility Clouds Conditions
360° at 9 knots 4,506 meters
  • Broken at 200' AGL
  • Mist
Temperatures Readings
Current 14°C / 57°F
Dewpoint 14°C / 57°F
Humidity 100%
Altimeter 29.85" Hg
Pressure 1011 hPa
Elevation 13
METAR EGEC 201620Z 36009KT 4500 BR BKN002 14/14 Q1011
Observed Flight Rules
Jul-20 @ 16:20 UTC
(12 hours ago)
LIFR
Wind Visibility
360° at 9 knots 4,506 meters
Clouds
  • Broken at 200' AGL
Conditions
  • Mist
Temperature Dewpoint
14°C / 57°F 14°C / 57°F
Humidity Altimeter Pressure
100% 29.85" Hg 1011 hPa